sensor_id;sensor_type;location;lat;lon;timestamp;P1;durP1;ratioP1;P2;durP2;ratioP2
79361;SDS011;68830;47.566;19.012;2023-06-10T00:00:11;25.08;;;12.45;;
79361;SDS011;68830;47.566;19.012;2023-06-10T00:03:21;25.05;;;12.70;;
79361;SDS011;68830;47.566;19.012;2023-06-10T00:06:25;25.42;;;11.65;;
79361;SDS011;68830;47.566;19.012;2023-06-10T00:09:35;22.25;;;11.60;;
79361;SDS011;68830;47.566;19.012;2023-06-10T00:12:38;26.10;;;12.95;;
79361;SDS011;68830;47.566;19.012;2023-06-10T00:15:41;23.17;;;10.23;;
79361;SDS011;68830;47.566;19.012;2023-06-10T00:18:49;23.80;;;12.00;;
79361;SDS011;68830;47.566;19.012;2023-06-10T00:21:54;19.33;;;10.85;;
79361;SDS011;68830;47.566;19.012;2023-06-10T00:24:56;36.83;;;10.85;;
79361;SDS011;68830;47.566;19.012;2023-06-10T00:27:58;22.23;;;9.48;;
79361;SDS011;68830;47.566;19.012;2023-06-10T00:31:00;19.45;;;9.63;;
79361;SDS011;68830;47.566;19.012;2023-06-10T00:34:06;26.52;;;13.13;;
79361;SDS011;68830;47.566;19.012;2023-06-10T00:37:08;23.25;;;10.77;;
79361;SDS011;68830;47.566;19.012;2023-06-10T00:40:11;24.60;;;9.88;;
79361;SDS011;68830;47.566;19.012;2023-06-10T00:43:14;20.17;;;9.32;;
79361;SDS011;68830;47.566;19.012;2023-06-10T00:46:16;22.38;;;9.40;;
79361;SDS011;68830;47.566;19.012;2023-06-10T00:49:25;23.30;;;10.07;;
79361;SDS011;68830;47.566;19.012;2023-06-10T00:52:28;22.40;;;10.13;;
79361;SDS011;68830;47.566;19.012;2023-06-10T00:55:34;17.35;;;9.77;;
79361;SDS011;68830;47.566;19.012;2023-06-10T00:58:40;24.27;;;10.50;;
79361;SDS011;68830;47.566;19.012;2023-06-10T01:01:45;23.98;;;10.15;;
79361;SDS011;68830;47.566;19.012;2023-06-10T01:04:53;19.58;;;10.77;;
79361;SDS011;68830;47.566;19.012;2023-06-10T01:07:56;36.85;;;13.43;;
79361;SDS011;68830;47.566;19.012;2023-06-10T01:11:04;32.22;;;11.10;;
79361;SDS011;68830;47.566;19.012;2023-06-10T01:14:10;21.30;;;9.90;;
79361;SDS011;68830;47.566;19.012;2023-06-10T01:17:13;19.45;;;9.70;;
79361;SDS011;68830;47.566;19.012;2023-06-10T01:20:20;29.00;;;11.25;;
79361;SDS011;68830;47.566;19.012;2023-06-10T01:23:23;28.88;;;12.70;;
79361;SDS011;68830;47.566;19.012;2023-06-10T01:26:30;20.00;;;9.02;;
79361;SDS011;68830;47.566;19.012;2023-06-10T01:29:49;27.80;;;10.95;;
79361;SDS011;68830;47.566;19.012;2023-06-10T01:33:01;18.23;;;9.63;;
79361;SDS011;68830;47.566;19.012;2023-06-10T01:36:07;27.10;;;9.52;;
79361;SDS011;68830;47.566;19.012;2023-06-10T01:39:14;22.60;;;9.90;;
79361;SDS011;68830;47.566;19.012;2023-06-10T01:42:17;21.77;;;10.70;;
79361;SDS011;68830;47.566;19.012;2023-06-10T01:45:23;26.65;;;11.52;;
79361;SDS011;68830;47.566;19.012;2023-06-10T01:48:26;23.88;;;11.48;;
79361;SDS011;68830;47.566;19.012;2023-06-10T01:51:28;35.42;;;11.10;;
79361;SDS011;68830;47.566;19.012;2023-06-10T01:54:35;19.88;;;11.55;;
79361;SDS011;68830;47.566;19.012;2023-06-10T01:57:37;20.92;;;10.00;;
79361;SDS011;68830;47.566;19.012;2023-06-10T02:00:39;26.33;;;11.63;;
79361;SDS011;68830;47.566;19.012;2023-06-10T02:03:47;21.60;;;10.38;;
79361;SDS011;68830;47.566;19.012;2023-06-10T02:07:00;20.25;;;11.10;;
79361;SDS011;68830;47.566;19.012;2023-06-10T02:10:09;25.00;;;12.38;;
79361;SDS011;68830;47.566;19.012;2023-06-10T02:13:11;20.20;;;10.27;;
79361;SDS011;68830;47.566;19.012;2023-06-10T02:16:17;19.25;;;10.43;;
79361;SDS011;68830;47.566;19.012;2023-06-10T02:19:20;23.52;;;11.85;;
79361;SDS011;68830;47.566;19.012;2023-06-10T02:22:25;24.30;;;10.68;;
79361;SDS011;68830;47.566;19.012;2023-06-10T02:25:32;28.30;;;12.65;;
79361;SDS011;68830;47.566;19.012;2023-06-10T02:28:34;28.42;;;12.20;;
79361;SDS011;68830;47.566;19.012;2023-06-10T02:31:36;24.15;;;12.48;;
79361;SDS011;68830;47.566;19.012;2023-06-10T02:34:41;29.55;;;12.00;;
79361;SDS011;68830;47.566;19.012;2023-06-10T02:37:44;25.05;;;12.10;;
79361;SDS011;68830;47.566;19.012;2023-06-10T02:40:48;24.73;;;11.07;;
79361;SDS011;68830;47.566;19.012;2023-06-10T02:43:50;27.83;;;12.95;;
79361;SDS011;68830;47.566;19.012;2023-06-10T02:46:52;29.30;;;13.57;;
79361;SDS011;68830;47.566;19.012;2023-06-10T02:49:54;23.20;;;11.25;;
79361;SDS011;68830;47.566;19.012;2023-06-10T02:52:57;29.02;;;12.32;;
79361;SDS011;68830;47.566;19.012;2023-06-10T02:56:00;27.98;;;13.52;;
79361;SDS011;68830;47.566;19.012;2023-06-10T02:59:04;25.60;;;12.45;;
79361;SDS011;68830;47.566;19.012;2023-06-10T03:02:08;35.85;;;13.07;;
79361;SDS011;68830;47.566;19.012;2023-06-10T03:05:13;27.63;;;12.32;;
79361;SDS011;68830;47.566;19.012;2023-06-10T03:08:16;24.95;;;12.45;;
79361;SDS011;68830;47.566;19.012;2023-06-10T03:11:20;28.77;;;13.02;;
79361;SDS011;68830;47.566;19.012;2023-06-10T03:14:22;29.33;;;14.52;;
79361;SDS011;68830;47.566;19.012;2023-06-10T03:17:26;24.60;;;12.30;;
79361;SDS011;68830;47.566;19.012;2023-06-10T03:20:29;27.17;;;13.80;;
79361;SDS011;68830;47.566;19.012;2023-06-10T03:23:33;29.40;;;13.40;;
79361;SDS011;68830;47.566;19.012;2023-06-10T03:26:37;23.98;;;13.23;;
79361;SDS011;68830;47.566;19.012;2023-06-10T03:29:39;27.08;;;12.32;;
79361;SDS011;68830;47.566;19.012;2023-06-10T03:32:41;32.60;;;14.27;;
79361;SDS011;68830;47.566;19.012;2023-06-10T03:35:45;33.35;;;15.90;;
79361;SDS011;68830;47.566;19.012;2023-06-10T03:38:48;33.40;;;15.45;;
79361;SDS011;68830;47.566;19.012;2023-06-10T03:41:56;32.28;;;14.88;;
79361;SDS011;68830;47.566;19.012;2023-06-10T03:44:59;36.08;;;15.80;;
79361;SDS011;68830;47.566;19.012;2023-06-10T03:48:01;42.80;;;15.52;;
79361;SDS011;68830;47.566;19.012;2023-06-10T03:51:14;29.42;;;15.43;;
79361;SDS011;68830;47.566;19.012;2023-06-10T03:54:27;34.72;;;15.07;;
79361;SDS011;68830;47.566;19.012;2023-06-10T03:57:34;33.55;;;15.57;;
79361;SDS011;68830;47.566;19.012;2023-06-10T04:00:36;33.10;;;15.48;;
79361;SDS011;68830;47.566;19.012;2023-06-10T04:03:46;39.05;;;16.42;;
79361;SDS011;68830;47.566;19.012;2023-06-10T04:06:53;35.83;;;15.82;;
79361;SDS011;68830;47.566;19.012;2023-06-10T04:09:58;36.80;;;15.90;;
79361;SDS011;68830;47.566;19.012;2023-06-10T04:13:04;32.15;;;15.00;;
79361;SDS011;68830;47.566;19.012;2023-06-10T04:16:11;38.33;;;16.65;;
79361;SDS011;68830;47.566;19.012;2023-06-10T04:19:14;38.92;;;15.80;;
79361;SDS011;68830;47.566;19.012;2023-06-10T04:22:16;50.95;;;16.75;;
79361;SDS011;68830;47.566;19.012;2023-06-10T04:25:21;39.50;;;17.48;;
79361;SDS011;68830;47.566;19.012;2023-06-10T04:28:25;40.80;;;17.50;;
79361;SDS011;68830;47.566;19.012;2023-06-10T04:31:30;38.70;;;17.35;;
79361;SDS011;68830;47.566;19.012;2023-06-10T04:34:34;35.55;;;17.42;;
79361;SDS011;68830;47.566;19.012;2023-06-10T04:37:37;41.38;;;18.83;;
79361;SDS011;68830;47.566;19.012;2023-06-10T04:40:40;36.70;;;18.35;;
79361;SDS011;68830;47.566;19.012;2023-06-10T04:43:43;32.40;;;17.02;;
79361;SDS011;68830;47.566;19.012;2023-06-10T04:46:46;37.33;;;17.02;;
79361;SDS011;68830;47.566;19.012;2023-06-10T04:49:51;46.28;;;18.77;;
79361;SDS011;68830;47.566;19.012;2023-06-10T04:52:54;39.63;;;18.15;;
79361;SDS011;68830;47.566;19.012;2023-06-10T04:55:58;38.20;;;17.15;;
79361;SDS011;68830;47.566;19.012;2023-06-10T04:59:18;31.15;;;17.42;;
79361;SDS011;68830;47.566;19.012;2023-06-10T05:02:20;31.08;;;16.65;;
79361;SDS011;68830;47.566;19.012;2023-06-10T05:05:23;24.75;;;14.77;;
79361;SDS011;68830;47.566;19.012;2023-06-10T05:08:25;26.90;;;13.77;;
79361;SDS011;68830;47.566;19.012;2023-06-10T05:11:27;22.52;;;12.02;;
79361;SDS011;68830;47.566;19.012;2023-06-10T05:14:31;28.55;;;14.75;;
79361;SDS011;68830;47.566;19.012;2023-06-10T05:17:36;26.77;;;12.77;;
79361;SDS011;68830;47.566;19.012;2023-06-10T05:20:41;18.33;;;8.77;;
79361;SDS011;68830;47.566;19.012;2023-06-10T05:23:45;13.93;;;8.23;;
79361;SDS011;68830;47.566;19.012;2023-06-10T05:26:47;12.82;;;7.90;;
79361;SDS011;68830;47.566;19.012;2023-06-10T05:29:53;18.33;;;8.00;;
79361;SDS011;68830;47.566;19.012;2023-06-10T05:32:55;13.45;;;8.07;;
79361;SDS011;68830;47.566;19.012;2023-06-10T05:35:59;13.45;;;8.35;;
79361;SDS011;68830;47.566;19.012;2023-06-10T05:39:09;17.30;;;8.05;;
79361;SDS011;68830;47.566;19.012;2023-06-10T05:42:16;16.25;;;9.10;;
79361;SDS011;68830;47.566;19.012;2023-06-10T05:45:22;14.60;;;8.40;;
79361;SDS011;68830;47.566;19.012;2023-06-10T05:48:27;15.27;;;9.02;;
79361;SDS011;68830;47.566;19.012;2023-06-10T05:51:41;21.60;;;8.93;;
79361;SDS011;68830;47.566;19.012;2023-06-10T05:54:47;16.52;;;9.15;;
79361;SDS011;68830;47.566;19.012;2023-06-10T05:57:58;15.80;;;9.98;;
79361;SDS011;68830;47.566;19.012;2023-06-10T06:01:05;15.05;;;9.52;;
79361;SDS011;68830;47.566;19.012;2023-06-10T06:04:07;20.85;;;10.68;;
79361;SDS011;68830;47.566;19.012;2023-06-10T06:07:10;19.15;;;10.77;;
79361;SDS011;68830;47.566;19.012;2023-06-10T06:10:16;21.17;;;11.15;;
79361;SDS011;68830;47.566;19.012;2023-06-10T06:13:22;18.70;;;10.15;;
79361;SDS011;68830;47.566;19.012;2023-06-10T06:16:26;18.98;;;10.70;;
79361;SDS011;68830;47.566;19.012;2023-06-10T06:19:28;19.02;;;10.15;;
79361;SDS011;68830;47.566;19.012;2023-06-10T06:22:31;18.35;;;10.90;;
79361;SDS011;68830;47.566;19.012;2023-06-10T06:25:34;13.35;;;9.43;;
79361;SDS011;68830;47.566;19.012;2023-06-10T06:28:39;18.17;;;10.75;;
79361;SDS011;68830;47.566;19.012;2023-06-10T06:31:42;20.63;;;11.10;;
79361;SDS011;68830;47.566;19.012;2023-06-10T06:34:55;20.38;;;11.77;;
79361;SDS011;68830;47.566;19.012;2023-06-10T06:38:00;22.48;;;12.50;;
79361;SDS011;68830;47.566;19.012;2023-06-10T06:41:02;25.45;;;12.63;;
79361;SDS011;68830;47.566;19.012;2023-06-10T06:44:20;22.75;;;13.15;;
79361;SDS011;68830;47.566;19.012;2023-06-10T06:47:30;19.27;;;10.75;;
79361;SDS011;68830;47.566;19.012;2023-06-10T06:50:34;23.55;;;12.48;;
79361;SDS011;68830;47.566;19.012;2023-06-10T06:53:41;19.40;;;12.57;;
79361;SDS011;68830;47.566;19.012;2023-06-10T06:56:57;21.30;;;12.73;;
79361;SDS011;68830;47.566;19.012;2023-06-10T07:01:11;28.48;;;12.52;;
79361;SDS011;68830;47.566;19.012;2023-06-10T07:04:21;31.67;;;13.20;;
79361;SDS011;68830;47.566;19.012;2023-06-10T07:07:26;20.73;;;11.73;;
79361;SDS011;68830;47.566;19.012;2023-06-10T07:10:35;40.60;;;15.30;;
79361;SDS011;68830;47.566;19.012;2023-06-10T07:13:38;42.17;;;16.17;;
79361;SDS011;68830;47.566;19.012;2023-06-10T07:16:41;26.35;;;12.63;;
79361;SDS011;68830;47.566;19.012;2023-06-10T07:19:45;29.92;;;14.35;;
79361;SDS011;68830;47.566;19.012;2023-06-10T07:22:47;27.17;;;12.43;;
79361;SDS011;68830;47.566;19.012;2023-06-10T07:25:51;23.70;;;12.40;;
79361;SDS011;68830;47.566;19.012;2023-06-10T07:32:15;27.13;;;13.93;;
79361;SDS011;68830;47.566;19.012;2023-06-10T07:35:40;24.25;;;14.52;;
79361;SDS011;68830;47.566;19.012;2023-06-10T07:38:58;26.48;;;12.88;;
79361;SDS011;68830;47.566;19.012;2023-06-10T07:42:30;26.73;;;11.43;;
79361;SDS011;68830;47.566;19.012;2023-06-10T07:46:09;25.50;;;11.45;;
79361;SDS011;68830;47.566;19.012;2023-06-10T07:49:35;22.45;;;12.50;;
79361;SDS011;68830;47.566;19.012;2023-06-10T07:53:06;20.35;;;12.52;;
79361;SDS011;68830;47.566;19.012;2023-06-10T07:56:41;23.67;;;13.63;;
79361;SDS011;68830;47.566;19.012;2023-06-10T08:00:20;25.65;;;13.95;;
79361;SDS011;68830;47.566;19.012;2023-06-10T08:03:53;31.65;;;18.92;;
79361;SDS011;68830;47.566;19.012;2023-06-10T08:07:27;28.58;;;19.00;;
79361;SDS011;68830;47.566;19.012;2023-06-10T08:10:37;30.52;;;19.83;;
79361;SDS011;68830;47.566;19.012;2023-06-10T08:13:41;32.60;;;19.55;;
79361;SDS011;68830;47.566;19.012;2023-06-10T08:16:50;27.08;;;17.27;;
79361;SDS011;68830;47.566;19.012;2023-06-10T08:19:55;28.40;;;18.48;;
79361;SDS011;68830;47.566;19.012;2023-06-10T08:23:28;29.30;;;18.65;;
79361;SDS011;68830;47.566;19.012;2023-06-10T08:26:42;23.92;;;16.20;;
79361;SDS011;68830;47.566;19.012;2023-06-10T08:29:52;26.25;;;18.05;;
79361;SDS011;68830;47.566;19.012;2023-06-10T08:33:29;23.85;;;14.82;;
79361;SDS011;68830;47.566;19.012;2023-06-10T08:36:42;21.52;;;12.88;;
79361;SDS011;68830;47.566;19.012;2023-06-10T08:40:05;26.08;;;14.27;;
79361;SDS011;68830;47.566;19.012;2023-06-10T08:43:48;25.23;;;13.10;;
79361;SDS011;68830;47.566;19.012;2023-06-10T08:50:55;22.77;;;11.43;;
79361;SDS011;68830;47.566;19.012;2023-06-10T08:54:26;23.60;;;12.40;;
79361;SDS011;68830;47.566;19.012;2023-06-10T08:58:04;23.80;;;12.65;;
79361;SDS011;68830;47.566;19.012;2023-06-10T09:01:31;22.92;;;12.10;;
79361;SDS011;68830;47.566;19.012;2023-06-10T09:05:09;26.80;;;15.73;;
79361;SDS011;68830;47.566;19.012;2023-06-10T09:08:35;25.80;;;15.07;;
79361;SDS011;68830;47.566;19.012;2023-06-10T09:11:45;27.80;;;16.23;;
79361;SDS011;68830;47.566;19.012;2023-06-10T09:15:00;25.73;;;16.75;;
79361;SDS011;68830;47.566;19.012;2023-06-10T09:18:32;28.75;;;16.33;;
79361;SDS011;68830;47.566;19.012;2023-06-10T09:21:51;33.28;;;19.63;;
79361;SDS011;68830;47.566;19.012;2023-06-10T09:25:03;34.17;;;19.13;;
79361;SDS011;68830;47.566;19.012;2023-06-10T09:28:26;32.78;;;19.55;;
79361;SDS011;68830;47.566;19.012;2023-06-10T09:31:36;33.65;;;20.42;;
79361;SDS011;68830;47.566;19.012;2023-06-10T09:35:11;33.00;;;20.20;;
79361;SDS011;68830;47.566;19.012;2023-06-10T09:42:26;36.83;;;19.98;;
79361;SDS011;68830;47.566;19.012;2023-06-10T09:46:25;30.35;;;18.45;;
79361;SDS011;68830;47.566;19.012;2023-06-10T09:58:45;37.10;;;20.30;;
79361;SDS011;68830;47.566;19.012;2023-06-10T10:06:03;33.00;;;18.92;;
79361;SDS011;68830;47.566;19.012;2023-06-10T10:09:27;33.17;;;18.58;;
79361;SDS011;68830;47.566;19.012;2023-06-10T10:16:21;32.92;;;19.80;;
79361;SDS011;68830;47.566;19.012;2023-06-10T10:19:59;32.28;;;19.70;;
79361;SDS011;68830;47.566;19.012;2023-06-10T10:23:31;30.38;;;18.98;;
79361;SDS011;68830;47.566;19.012;2023-06-10T10:26:51;33.05;;;18.90;;
79361;SDS011;68830;47.566;19.012;2023-06-10T10:30:42;31.65;;;18.33;;
79361;SDS011;68830;47.566;19.012;2023-06-10T10:34:18;33.10;;;20.40;;
79361;SDS011;68830;47.566;19.012;2023-06-10T10:37:41;36.83;;;20.85;;
79361;SDS011;68830;47.566;19.012;2023-06-10T10:40:56;46.30;;;23.85;;
79361;SDS011;68830;47.566;19.012;2023-06-10T10:44:15;33.42;;;21.48;;
79361;SDS011;68830;47.566;19.012;2023-06-10T10:47:35;29.02;;;19.45;;
79361;SDS011;68830;47.566;19.012;2023-06-10T10:51:03;27.95;;;16.83;;
79361;SDS011;68830;47.566;19.012;2023-06-10T10:54:18;30.65;;;19.20;;
79361;SDS011;68830;47.566;19.012;2023-06-10T10:57:44;32.92;;;19.38;;
79361;SDS011;68830;47.566;19.012;2023-06-10T11:00:50;32.50;;;19.75;;
79361;SDS011;68830;47.566;19.012;2023-06-10T11:04:08;37.00;;;20.70;;
79361;SDS011;68830;47.566;19.012;2023-06-10T11:07:37;27.52;;;17.13;;
79361;SDS011;68830;47.566;19.012;2023-06-10T11:11:21;28.20;;;17.80;;
79361;SDS011;68830;47.566;19.012;2023-06-10T11:14:53;26.40;;;17.60;;
79361;SDS011;68830;47.566;19.012;2023-06-10T11:18:51;30.35;;;16.83;;
79361;SDS011;68830;47.566;19.012;2023-06-10T11:22:18;28.38;;;17.90;;
79361;SDS011;68830;47.566;19.012;2023-06-10T11:25:42;28.00;;;15.90;;
79361;SDS011;68830;47.566;19.012;2023-06-10T11:29:04;24.60;;;14.13;;
79361;SDS011;68830;47.566;19.012;2023-06-10T11:32:13;24.40;;;14.38;;
79361;SDS011;68830;47.566;19.012;2023-06-10T11:35:16;27.15;;;16.63;;
79361;SDS011;68830;47.566;19.012;2023-06-10T11:38:24;24.60;;;16.02;;
79361;SDS011;68830;47.566;19.012;2023-06-10T11:41:34;27.23;;;17.73;;
79361;SDS011;68830;47.566;19.012;2023-06-10T11:44:47;32.28;;;20.13;;
79361;SDS011;68830;47.566;19.012;2023-06-10T11:47:57;32.90;;;20.50;;
79361;SDS011;68830;47.566;19.012;2023-06-10T11:54:13;28.65;;;17.98;;
79361;SDS011;68830;47.566;19.012;2023-06-10T11:57:15;20.60;;;12.52;;
79361;SDS011;68830;47.566;19.012;2023-06-10T12:00:33;28.23;;;13.90;;
79361;SDS011;68830;47.566;19.012;2023-06-10T12:07:28;16.92;;;11.57;;
79361;SDS011;68830;47.566;19.012;2023-06-10T12:10:32;17.85;;;11.60;;
79361;SDS011;68830;47.566;19.012;2023-06-10T12:13:34;17.08;;;11.13;;
79361;SDS011;68830;47.566;19.012;2023-06-10T12:16:37;16.92;;;11.10;;
79361;SDS011;68830;47.566;19.012;2023-06-10T12:19:39;15.23;;;11.05;;
79361;SDS011;68830;47.566;19.012;2023-06-10T12:22:44;20.60;;;11.70;;
79361;SDS011;68830;47.566;19.012;2023-06-10T12:25:57;19.15;;;13.15;;
79361;SDS011;68830;47.566;19.012;2023-06-10T12:29:15;18.55;;;11.95;;
79361;SDS011;68830;47.566;19.012;2023-06-10T12:32:40;16.75;;;11.10;;
79361;SDS011;68830;47.566;19.012;2023-06-10T12:35:51;14.15;;;9.55;;
79361;SDS011;68830;47.566;19.012;2023-06-10T12:39:06;14.38;;;9.52;;
79361;SDS011;68830;47.566;19.012;2023-06-10T12:46:18;17.27;;;10.73;;
79361;SDS011;68830;47.566;19.012;2023-06-10T12:49:24;17.13;;;10.13;;
79361;SDS011;68830;47.566;19.012;2023-06-10T12:52:41;14.38;;;9.02;;
79361;SDS011;68830;47.566;19.012;2023-06-10T12:56:16;15.40;;;9.98;;
79361;SDS011;68830;47.566;19.012;2023-06-10T12:59:28;15.38;;;9.65;;
79361;SDS011;68830;47.566;19.012;2023-06-10T13:02:59;17.58;;;11.30;;
79361;SDS011;68830;47.566;19.012;2023-06-10T13:06:20;17.40;;;10.63;;
79361;SDS011;68830;47.566;19.012;2023-06-10T13:09:24;15.98;;;10.85;;
79361;SDS011;68830;47.566;19.012;2023-06-10T13:12:26;11.77;;;8.13;;
79361;SDS011;68830;47.566;19.012;2023-06-10T13:15:49;13.80;;;8.15;;
79361;SDS011;68830;47.566;19.012;2023-06-10T13:18:52;15.40;;;8.90;;
79361;SDS011;68830;47.566;19.012;2023-06-10T13:21:54;14.75;;;9.00;;
79361;SDS011;68830;47.566;19.012;2023-06-10T13:24:59;12.40;;;8.52;;
79361;SDS011;68830;47.566;19.012;2023-06-10T13:28:04;18.13;;;10.40;;
79361;SDS011;68830;47.566;19.012;2023-06-10T13:31:15;12.93;;;8.80;;
79361;SDS011;68830;47.566;19.012;2023-06-10T13:34:19;18.27;;;9.65;;
79361;SDS011;68830;47.566;19.012;2023-06-10T13:37:26;15.48;;;10.55;;
79361;SDS011;68830;47.566;19.012;2023-06-10T13:40:30;20.45;;;10.77;;
79361;SDS011;68830;47.566;19.012;2023-06-10T13:43:33;19.58;;;11.13;;
79361;SDS011;68830;47.566;19.012;2023-06-10T13:46:36;19.27;;;13.30;;
79361;SDS011;68830;47.566;19.012;2023-06-10T13:49:39;19.23;;;11.27;;
79361;SDS011;68830;47.566;19.012;2023-06-10T13:52:41;18.88;;;11.65;;
79361;SDS011;68830;47.566;19.012;2023-06-10T13:55:43;18.77;;;10.80;;
79361;SDS011;68830;47.566;19.012;2023-06-10T13:58:48;20.85;;;12.07;;
79361;SDS011;68830;47.566;19.012;2023-06-10T14:01:52;20.45;;;9.93;;
79361;SDS011;68830;47.566;19.012;2023-06-10T14:13:50;22.77;;;10.77;;
79361;SDS011;68830;47.566;19.012;2023-06-10T14:17:01;22.60;;;13.73;;
79361;SDS011;68830;47.566;19.012;2023-06-10T14:20:14;23.67;;;13.30;;
79361;SDS011;68830;47.566;19.012;2023-06-10T14:23:24;26.83;;;15.63;;
79361;SDS011;68830;47.566;19.012;2023-06-10T14:26:36;20.00;;;12.10;;
79361;SDS011;68830;47.566;19.012;2023-06-10T14:29:41;22.67;;;13.40;;
79361;SDS011;68830;47.566;19.012;2023-06-10T14:32:48;30.45;;;14.73;;
79361;SDS011;68830;47.566;19.012;2023-06-10T14:35:50;17.33;;;11.25;;
79361;SDS011;68830;47.566;19.012;2023-06-10T14:38:58;22.17;;;12.45;;
79361;SDS011;68830;47.566;19.012;2023-06-10T14:42:06;22.48;;;13.55;;
79361;SDS011;68830;47.566;19.012;2023-06-10T14:45:13;20.67;;;11.25;;
79361;SDS011;68830;47.566;19.012;2023-06-10T14:48:27;22.90;;;10.63;;
79361;SDS011;68830;47.566;19.012;2023-06-10T14:51:32;16.40;;;9.55;;
79361;SDS011;68830;47.566;19.012;2023-06-10T14:54:37;21.15;;;12.15;;
79361;SDS011;68830;47.566;19.012;2023-06-10T14:57:43;22.77;;;12.32;;
79361;SDS011;68830;47.566;19.012;2023-06-10T15:00:45;18.95;;;11.93;;
79361;SDS011;68830;47.566;19.012;2023-06-10T15:03:51;22.60;;;12.57;;
79361;SDS011;68830;47.566;19.012;2023-06-10T15:07:01;21.88;;;12.70;;
79361;SDS011;68830;47.566;19.012;2023-06-10T15:10:07;26.55;;;12.60;;
79361;SDS011;68830;47.566;19.012;2023-06-10T15:13:12;22.30;;;11.85;;
79361;SDS011;68830;47.566;19.012;2023-06-10T15:16:16;21.50;;;12.63;;
79361;SDS011;68830;47.566;19.012;2023-06-10T15:19:21;20.90;;;12.35;;
79361;SDS011;68830;47.566;19.012;2023-06-10T15:22:26;20.08;;;12.75;;
79361;SDS011;68830;47.566;19.012;2023-06-10T15:25:30;24.98;;;12.68;;
79361;SDS011;68830;47.566;19.012;2023-06-10T15:28:33;20.80;;;12.27;;
79361;SDS011;68830;47.566;19.012;2023-06-10T15:31:37;23.63;;;13.70;;
79361;SDS011;68830;47.566;19.012;2023-06-10T15:34:46;29.00;;;14.05;;
79361;SDS011;68830;47.566;19.012;2023-06-10T15:37:56;23.05;;;13.50;;
79361;SDS011;68830;47.566;19.012;2023-06-10T15:41:02;29.42;;;14.23;;
79361;SDS011;68830;47.566;19.012;2023-06-10T15:44:04;23.83;;;14.40;;
79361;SDS011;68830;47.566;19.012;2023-06-10T15:47:07;36.42;;;15.48;;
79361;SDS011;68830;47.566;19.012;2023-06-10T15:50:10;33.80;;;14.18;;
79361;SDS011;68830;47.566;19.012;2023-06-10T15:53:13;24.05;;;14.60;;
79361;SDS011;68830;47.566;19.012;2023-06-10T15:56:15;28.17;;;15.75;;
79361;SDS011;68830;47.566;19.012;2023-06-10T15:59:17;28.30;;;16.95;;
79361;SDS011;68830;47.566;19.012;2023-06-10T16:02:19;30.40;;;15.52;;
79361;SDS011;68830;47.566;19.012;2023-06-10T16:05:23;24.65;;;13.82;;
79361;SDS011;68830;47.566;19.012;2023-06-10T16:08:32;30.25;;;15.30;;
79361;SDS011;68830;47.566;19.012;2023-06-10T16:11:34;26.75;;;14.75;;
79361;SDS011;68830;47.566;19.012;2023-06-10T16:14:36;26.00;;;15.18;;
79361;SDS011;68830;47.566;19.012;2023-06-10T16:17:38;29.77;;;13.90;;
79361;SDS011;68830;47.566;19.012;2023-06-10T16:20:42;31.35;;;16.77;;
79361;SDS011;68830;47.566;19.012;2023-06-10T16:23:44;28.05;;;15.60;;
79361;SDS011;68830;47.566;19.012;2023-06-10T16:26:47;26.63;;;14.50;;
79361;SDS011;68830;47.566;19.012;2023-06-10T16:29:52;32.45;;;15.20;;
79361;SDS011;68830;47.566;19.012;2023-06-10T16:32:54;25.95;;;15.05;;
79361;SDS011;68830;47.566;19.012;2023-06-10T16:36:00;29.08;;;15.30;;
79361;SDS011;68830;47.566;19.012;2023-06-10T16:39:02;28.27;;;14.25;;
79361;SDS011;68830;47.566;19.012;2023-06-10T16:42:04;38.40;;;16.67;;
79361;SDS011;68830;47.566;19.012;2023-06-10T16:45:07;28.98;;;16.15;;
79361;SDS011;68830;47.566;19.012;2023-06-10T16:48:10;28.20;;;15.23;;
79361;SDS011;68830;47.566;19.012;2023-06-10T16:51:15;29.27;;;16.30;;
79361;SDS011;68830;47.566;19.012;2023-06-10T16:54:17;30.02;;;16.33;;
79361;SDS011;68830;47.566;19.012;2023-06-10T16:57:20;33.85;;;18.13;;
79361;SDS011;68830;47.566;19.012;2023-06-10T17:00:25;42.38;;;19.17;;
79361;SDS011;68830;47.566;19.012;2023-06-10T17:06:30;37.05;;;20.15;;
79361;SDS011;68830;47.566;19.012;2023-06-10T17:09:32;39.65;;;19.85;;
79361;SDS011;68830;47.566;19.012;2023-06-10T17:12:34;39.30;;;20.23;;
79361;SDS011;68830;47.566;19.012;2023-06-10T17:15:36;43.17;;;20.77;;
79361;SDS011;68830;47.566;19.012;2023-06-10T17:18:38;38.20;;;18.08;;
79361;SDS011;68830;47.566;19.012;2023-06-10T17:21:42;30.35;;;16.58;;
79361;SDS011;68830;47.566;19.012;2023-06-10T17:24:44;39.40;;;19.30;;
79361;SDS011;68830;47.566;19.012;2023-06-10T17:27:52;43.53;;;18.63;;
79361;SDS011;68830;47.566;19.012;2023-06-10T17:30:54;33.22;;;18.60;;
79361;SDS011;68830;47.566;19.012;2023-06-10T17:33:56;33.65;;;17.35;;
79361;SDS011;68830;47.566;19.012;2023-06-10T17:37:00;41.20;;;20.52;;
79361;SDS011;68830;47.566;19.012;2023-06-10T17:40:02;34.40;;;18.35;;
79361;SDS011;68830;47.566;19.012;2023-06-10T17:43:04;33.63;;;18.25;;
79361;SDS011;68830;47.566;19.012;2023-06-10T17:46:06;35.03;;;17.80;;
79361;SDS011;68830;47.566;19.012;2023-06-10T17:49:09;46.08;;;18.48;;
79361;SDS011;68830;47.566;19.012;2023-06-10T17:52:12;40.40;;;18.95;;
79361;SDS011;68830;47.566;19.012;2023-06-10T17:55:15;45.95;;;19.80;;
79361;SDS011;68830;47.566;19.012;2023-06-10T17:58:17;52.90;;;18.92;;
79361;SDS011;68830;47.566;19.012;2023-06-10T18:01:19;44.95;;;20.95;;
79361;SDS011;68830;47.566;19.012;2023-06-10T18:04:21;41.92;;;18.40;;
79361;SDS011;68830;47.566;19.012;2023-06-10T18:07:25;35.63;;;19.05;;
79361;SDS011;68830;47.566;19.012;2023-06-10T18:10:27;34.25;;;18.38;;
79361;SDS011;68830;47.566;19.012;2023-06-10T18:13:30;45.75;;;19.40;;
79361;SDS011;68830;47.566;19.012;2023-06-10T18:16:32;38.75;;;18.77;;
79361;SDS011;68830;47.566;19.012;2023-06-10T18:19:34;39.65;;;18.27;;
79361;SDS011;68830;47.566;19.012;2023-06-10T18:22:38;39.55;;;19.55;;
79361;SDS011;68830;47.566;19.012;2023-06-10T18:25:39;42.17;;;21.77;;
79361;SDS011;68830;47.566;19.012;2023-06-10T18:28:41;58.38;;;21.67;;
79361;SDS011;68830;47.566;19.012;2023-06-10T18:31:43;36.28;;;20.00;;
79361;SDS011;68830;47.566;19.012;2023-06-10T18:34:46;44.80;;;21.88;;
79361;SDS011;68830;47.566;19.012;2023-06-10T18:37:49;47.72;;;21.67;;
79361;SDS011;68830;47.566;19.012;2023-06-10T18:40:51;49.50;;;23.45;;
79361;SDS011;68830;47.566;19.012;2023-06-10T18:43:53;41.50;;;22.50;;
79361;SDS011;68830;47.566;19.012;2023-06-10T18:46:57;51.65;;;23.58;;
79361;SDS011;68830;47.566;19.012;2023-06-10T18:49:59;47.53;;;21.08;;
79361;SDS011;68830;47.566;19.012;2023-06-10T18:53:02;38.80;;;21.63;;
79361;SDS011;68830;47.566;19.012;2023-06-10T18:56:04;43.63;;;23.25;;
79361;SDS011;68830;47.566;19.012;2023-06-10T18:59:06;43.88;;;22.48;;
79361;SDS011;68830;47.566;19.012;2023-06-10T19:02:08;52.08;;;23.90;;